createdAt,value
2022-11-13T00:01:15.458Z,102924.81
2022-11-13T00:03:44.946Z,102928.44
2022-11-13T00:06:14.661Z,102915.13
2022-11-13T00:08:45.114Z,102912.41
2022-11-13T00:11:18.440Z,102896.88
2022-11-13T00:13:47.984Z,102915.41
2022-11-13T00:16:19.455Z,102913.63
2022-11-13T00:18:49.036Z,102926.41
2022-11-13T00:21:20.068Z,102919.16
2022-11-13T00:23:50.677Z,102915.31
2022-11-13T00:26:21.914Z,102918.88
2022-11-13T00:28:55.486Z,102903.66
2022-11-13T00:31:24.333Z,102878.84
2022-11-13T00:36:41.440Z,102886.72
2022-11-13T00:39:11.605Z,102874.28
2022-11-13T00:41:40.069Z,102872.34
2022-11-13T00:44:09.139Z,102868.88
2022-11-13T00:46:38.217Z,102866.16
2022-11-13T00:49:06.814Z,102866.22
2022-11-13T00:51:35.281Z,102856.38
2022-11-13T00:54:03.659Z,102852.88
2022-11-13T00:56:33.633Z,102845.69
2022-11-13T00:59:02.047Z,102848.41
2022-11-13T01:01:30.668Z,102852.22
2022-11-13T01:03:59.200Z,102859.22
2022-11-13T01:06:29.436Z,102852.09
2022-11-13T01:08:59.949Z,102845.78
2022-11-13T01:11:32.405Z,102837.84
2022-11-13T01:14:00.775Z,102844.91
2022-11-13T01:16:30.523Z,102832.38
2022-11-13T01:18:59.313Z,102841.28
2022-11-13T01:21:31.582Z,102827.97
2022-11-13T01:24:00.363Z,102823.69
2022-11-13T01:26:32.911Z,102811.22
2022-11-13T01:29:04.399Z,102830.69
2022-11-13T01:31:33.269Z,102823.56
2022-11-13T01:34:01.664Z,102823.56
2022-11-13T01:36:31.379Z,102815.50
2022-11-13T01:39:01.824Z,102808.47
2022-11-13T01:41:35.340Z,102803.09
2022-11-13T01:44:04.087Z,102811.06
2022-11-13T01:46:34.235Z,102803.97
2022-11-13T01:49:22.286Z,102803.03
2022-11-13T01:51:55.922Z,102800.25
2022-11-13T01:54:30.557Z,102809.19
2022-11-13T01:57:01.138Z,102812.78
2022-11-13T01:59:33.410Z,102811.81
2022-11-13T02:02:02.949Z,102808.25
2022-11-13T02:04:33.031Z,102799.34
2022-11-13T02:07:05.615Z,102805.59
2022-11-13T02:09:39.154Z,102793.19
2022-11-13T02:12:12.611Z,102790.44
2022-11-13T02:14:44.348Z,102788.66
2022-11-13T02:17:17.810Z,102788.78
2022-11-13T02:19:52.101Z,102771.09
2022-11-13T02:22:34.979Z,102760.56
2022-11-13T02:25:07.451Z,102779.94
2022-11-13T02:27:44.062Z,102786.09
2022-11-13T02:30:17.506Z,102787.91
2022-11-13T02:32:51.106Z,102783.50
2022-11-13T02:35:25.610Z,102781.84
2022-11-13T02:37:55.874Z,102786.22
2022-11-13T02:40:26.824Z,102774.78
2022-11-13T02:42:55.220Z,102770.16
2022-11-13T02:45:24.495Z,102768.44
2022-11-13T02:47:52.995Z,102779.09
2022-11-13T02:50:21.747Z,102788.88
2022-11-13T02:52:50.172Z,102790.78
2022-11-13T02:55:19.001Z,102769.31
2022-11-13T02:57:48.923Z,102787.06
2022-11-13T03:00:18.748Z,102779.69
2022-11-13T03:02:47.189Z,102775.41
2022-11-13T03:05:15.577Z,102776.22
2022-11-13T03:07:44.440Z,102775.22
2022-11-13T03:10:13.208Z,102773.41
2022-11-13T03:12:42.233Z,102771.72
2022-11-13T03:15:12.669Z,102774.28
2022-11-13T03:17:42.570Z,102774.31
2022-11-13T03:20:11.685Z,102764.41
2022-11-13T03:22:40.252Z,102768.03
2022-11-13T03:25:10.898Z,102767.09
2022-11-13T03:27:39.934Z,102767.13
2022-11-13T03:30:11.977Z,102764.31
2022-11-13T03:32:40.296Z,102765.13
2022-11-13T03:35:10.074Z,102750.94
2022-11-13T03:37:38.857Z,102756.34
2022-11-13T03:40:09.487Z,102761.84
2022-11-13T03:42:37.843Z,102752.84
2022-11-13T03:45:07.225Z,102743.13
2022-11-13T03:47:37.410Z,102752.91
2022-11-13T03:50:07.040Z,102748.44
2022-11-13T03:52:35.795Z,102744.03
2022-11-13T03:55:04.241Z,102748.59
2022-11-13T03:57:32.867Z,102738.78
2022-11-13T04:00:01.640Z,102728.13
2022-11-13T04:02:30.335Z,102740.66
2022-11-13T04:05:00.248Z,102729.25
2022-11-13T04:07:28.712Z,102735.50
2022-11-13T04:09:57.090Z,102727.66
2022-11-13T04:12:27.295Z,102728.56
2022-11-13T04:14:55.611Z,102737.53
2022-11-13T04:17:24.075Z,102727.75
2022-11-13T04:19:52.596Z,102725.16
2022-11-13T04:22:22.587Z,102722.53
2022-11-13T04:24:51.644Z,102718.19
2022-11-13T04:27:20.081Z,102718.22
2022-11-13T04:29:49.360Z,102721.22
2022-11-13T04:32:17.936Z,102721.09
2022-11-13T04:34:46.533Z,102715.69
2022-11-13T04:37:15.023Z,102709.44
2022-11-13T04:39:44.896Z,102702.38
2022-11-13T04:42:31.509Z,102706.16
2022-11-13T04:45:02.759Z,102706.03
2022-11-13T04:47:32.264Z,102706.25
2022-11-13T04:50:03.427Z,102708.75
2022-11-13T04:52:31.987Z,102709.72
2022-11-13T04:55:02.025Z,102708.69
2022-11-13T04:57:30.718Z,102705.13
2022-11-13T04:59:59.606Z,102707.78
2022-11-13T05:02:28.293Z,102712.22
2022-11-13T05:05:01.784Z,102707.94
2022-11-13T05:07:33.395Z,102710.50
2022-11-13T05:10:07.558Z,102715.78
2022-11-13T05:12:35.986Z,102711.31
2022-11-13T05:15:05.322Z,102707.81
2022-11-13T05:17:33.708Z,102707.78
2022-11-13T05:20:02.953Z,102706.06
2022-11-13T05:22:31.685Z,102703.31
2022-11-13T05:25:00.328Z,102693.75
2022-11-13T05:27:32.653Z,102698.13
2022-11-13T05:30:01.130Z,102687.44
2022-11-13T05:32:29.969Z,102685.53
2022-11-13T05:34:58.436Z,102685.59
2022-11-13T05:37:26.771Z,102677.66
2022-11-13T05:39:55.160Z,102676.13
2022-11-13T05:42:23.649Z,102683.19
2022-11-13T05:44:53.495Z,102679.75
2022-11-13T05:47:22.250Z,102682.41
2022-11-13T05:49:50.542Z,102670.84
2022-11-13T05:52:18.991Z,102666.44
2022-11-13T05:54:47.424Z,102665.56
2022-11-13T05:57:15.900Z,102671.91
2022-11-13T05:59:44.521Z,102660.53
2022-11-13T06:02:14.335Z,102666.06
2022-11-13T06:04:43.050Z,102662.31
2022-11-13T06:07:11.560Z,102660.66
2022-11-13T06:09:40.545Z,102657.16
2022-11-13T06:12:09.428Z,102650.13
2022-11-13T06:14:37.928Z,102655.66
2022-11-13T06:17:06.272Z,102666.19
2022-11-13T06:19:36.234Z,102656.47
2022-11-13T06:22:04.767Z,102654.63
2022-11-13T06:24:33.311Z,102657.28
2022-11-13T06:27:02.132Z,102645.97
2022-11-13T06:29:30.670Z,102653.78
2022-11-13T06:31:59.029Z,102652.94
2022-11-13T06:34:27.904Z,102648.72
2022-11-13T06:36:57.756Z,102650.38
2022-11-13T06:39:26.198Z,102644.13
2022-11-13T06:41:54.730Z,102641.56
2022-11-13T06:44:23.053Z,102649.72
2022-11-13T06:46:51.479Z,102654.03
2022-11-13T06:49:19.870Z,102648.75
2022-11-13T06:51:48.379Z,102643.53
2022-11-13T06:54:18.428Z,102642.59
2022-11-13T06:56:47.717Z,102645.25
2022-11-13T06:59:16.080Z,102630.22
2022-11-13T07:01:44.593Z,102639.91
2022-11-13T07:04:14.393Z,102632.91
2022-11-13T07:06:42.905Z,102630.34
2022-11-13T07:09:11.260Z,102638.19
2022-11-13T07:11:41.362Z,102631.13
2022-11-13T07:14:12.868Z,102627.53
2022-11-13T07:17:07.494Z,102636.47
2022-11-13T07:19:29.532Z,102636.44
2022-11-13T07:21:57.857Z,102634.59
2022-11-13T07:24:26.849Z,102639.94
2022-11-13T07:26:56.735Z,102634.63
2022-11-13T07:29:25.194Z,102630.16
2022-11-13T07:31:53.516Z,102634.50
2022-11-13T07:34:21.866Z,102629.06
2022-11-13T07:36:50.361Z,102625.34
2022-11-13T07:39:19.017Z,102627.09
2022-11-13T07:41:49.174Z,102628.81
2022-11-13T07:44:40.122Z,102624.16
2022-11-13T07:47:07.912Z,102630.28
2022-11-13T07:49:36.379Z,102628.25
2022-11-13T07:52:07.680Z,102628.94
2022-11-13T07:54:36.222Z,102627.66
2022-11-13T07:57:04.950Z,102634.59
2022-11-13T07:59:35.158Z,102645.69
2022-11-13T08:02:04.652Z,102651.53
2022-11-13T08:04:33.470Z,102638.72
2022-11-13T08:07:02.054Z,102645.56
2022-11-13T08:09:30.805Z,102646.97
2022-11-13T08:12:00.135Z,102641.09
2022-11-13T08:14:28.775Z,102633.66
2022-11-13T08:16:58.753Z,102642.13
2022-11-13T08:19:27.316Z,102636.25
2022-11-13T08:21:55.881Z,102628.00
2022-11-13T08:24:24.787Z,102622.91
2022-11-13T08:26:53.250Z,102617.25
2022-11-13T08:29:25.012Z,102621.31
2022-11-13T08:31:53.879Z,102603.84
2022-11-13T08:34:23.950Z,102610.63
2022-11-13T08:36:52.895Z,102603.56
2022-11-13T08:39:21.345Z,102603.91
2022-11-13T08:41:50.410Z,102597.41
2022-11-13T08:44:19.197Z,102601.78
2022-11-13T08:46:50.304Z,102585.69
2022-11-13T08:49:18.742Z,102600.50
2022-11-13T08:51:48.734Z,102581.66
2022-11-13T08:54:17.798Z,102587.75
2022-11-13T08:56:56.577Z,102578.22
2022-11-13T08:59:27.195Z,102572.34
2022-11-13T09:01:59.657Z,102577.75
2022-11-13T09:04:28.854Z,102570.03
2022-11-13T09:06:58.723Z,102564.25
2022-11-13T09:09:28.320Z,102557.75
2022-11-13T09:11:57.261Z,102544.97
2022-11-13T09:14:26.275Z,102538.91
2022-11-13T09:16:54.855Z,102545.34
2022-11-13T09:19:27.029Z,102545.97
2022-11-13T09:22:00.340Z,102532.41
2022-11-13T09:24:28.693Z,102535.63
2022-11-13T09:26:58.157Z,102534.56
2022-11-13T09:29:28.618Z,102539.44
2022-11-13T09:31:57.731Z,102527.44
2022-11-13T09:34:28.416Z,102524.75
2022-11-13T09:36:56.998Z,102527.16
2022-11-13T09:39:29.704Z,102521.09
2022-11-13T09:42:09.500Z,102520.66
2022-11-13T09:44:45.614Z,102526.41
2022-11-13T09:47:22.737Z,102520.56
2022-11-13T09:49:57.374Z,102515.34
2022-11-13T09:52:35.825Z,102527.47
2022-11-13T09:55:06.844Z,102508.63
2022-11-13T09:57:45.987Z,102519.22
2022-11-13T10:00:19.063Z,102506.88
2022-11-13T10:03:00.526Z,102505.81
2022-11-13T10:05:40.952Z,102505.63
2022-11-13T10:08:18.025Z,102499.16
2022-11-13T10:10:57.755Z,102491.91
2022-11-13T10:13:30.178Z,102491.91
2022-11-13T10:16:12.238Z,102487.44
2022-11-13T10:18:42.036Z,102488.91
2022-11-13T10:21:21.481Z,102483.00
2022-11-13T10:24:02.027Z,102488.81
2022-11-13T10:26:31.965Z,102477.94
2022-11-13T10:29:07.724Z,102476.41
2022-11-13T10:31:45.556Z,102478.41
2022-11-13T10:34:16.106Z,102478.41
2022-11-13T10:37:01.726Z,102473.38
2022-11-13T10:39:30.195Z,102470.84
2022-11-13T10:42:00.022Z,102471.50
2022-11-13T10:44:35.468Z,102463.06
2022-11-13T10:47:26.455Z,102462.28
2022-11-13T10:50:09.730Z,102462.28
2022-11-13T10:52:48.202Z,102456.28
2022-11-13T10:55:28.595Z,102459.00
2022-11-13T10:58:01.454Z,102457.56
2022-11-13T11:00:34.843Z,102462.97
2022-11-13T11:03:05.444Z,102448.31
2022-11-13T11:05:34.216Z,102436.69
2022-11-13T11:08:03.008Z,102436.91
2022-11-13T11:10:35.323Z,102432.63
2022-11-13T11:13:13.571Z,102424.34
2022-11-13T11:15:49.314Z,102430.03
2022-11-13T11:18:27.697Z,102421.00
2022-11-13T11:21:00.108Z,102407.31
2022-11-13T11:23:42.342Z,102403.63
2022-11-13T11:26:19.376Z,102402.41
2022-11-13T11:29:01.625Z,102391.22
2022-11-13T11:31:42.134Z,102391.00
2022-11-13T11:34:19.961Z,102389.16
2022-11-13T11:37:02.330Z,102377.91
2022-11-13T11:39:40.484Z,102379.72
2022-11-13T11:42:21.960Z,102377.53
2022-11-13T11:45:12.642Z,102377.16
2022-11-13T11:47:41.143Z,102373.25
2022-11-13T11:50:16.559Z,102368.63
2022-11-13T11:52:59.544Z,102365.66
2022-11-13T11:55:54.345Z,102354.16
2022-11-13T11:58:53.512Z,102353.53
2022-11-13T12:02:00.916Z,102350.47
2022-11-13T12:04:48.447Z,102345.50
2022-11-13T12:07:34.206Z,102346.22
2022-11-13T12:10:11.234Z,102340.34
2022-11-13T12:12:56.308Z,102338.75
2022-11-13T12:15:37.125Z,102327.00
2022-11-13T12:18:18.554Z,102326.88
2022-11-13T12:20:58.081Z,102324.63
2022-11-13T12:23:42.177Z,102321.03
2022-11-13T12:26:20.766Z,102321.72
2022-11-13T12:29:01.566Z,102311.31
2022-11-13T12:31:52.069Z,102308.91
2022-11-13T12:34:29.866Z,102311.22
2022-11-13T12:36:59.601Z,102303.81
2022-11-13T12:39:44.002Z,102307.78
2022-11-13T12:42:23.108Z,102299.19
2022-11-13T12:45:02.407Z,102297.66
2022-11-13T12:47:34.185Z,102298.56
2022-11-13T12:50:07.773Z,102297.41
2022-11-13T12:52:36.433Z,102288.59
2022-11-13T12:55:09.298Z,102291.50
2022-11-13T12:57:49.219Z,102282.06
2022-11-13T13:00:30.470Z,102276.53
2022-11-13T13:03:17.801Z,102275.97
2022-11-13T13:06:20.988Z,102273.66
2022-11-13T13:09:08.117Z,102267.75
2022-11-13T13:11:45.478Z,102257.94
2022-11-13T13:14:51.356Z,102262.19
2022-11-13T13:17:22.804Z,102259.69
2022-11-13T13:20:00.619Z,102251.78
2022-11-13T13:22:33.946Z,102253.88
2022-11-13T13:25:08.421Z,102249.47
2022-11-13T13:27:43.566Z,102256.81
2022-11-13T13:30:21.669Z,102251.94
2022-11-13T13:33:04.190Z,102246.47
2022-11-13T13:35:40.532Z,102243.75
2022-11-13T13:38:20.175Z,102229.91
2022-11-13T13:41:15.892Z,102228.97
2022-11-13T13:44:06.045Z,102230.16
2022-11-13T13:46:36.407Z,102228.63
2022-11-13T13:49:09.530Z,102230.16
2022-11-13T13:51:43.137Z,102231.72
2022-11-13T13:54:25.074Z,102221.31
2022-11-13T13:56:55.284Z,102216.53
2022-11-13T13:59:29.846Z,102214.44
2022-11-13T14:02:00.454Z,102198.50
2022-11-13T14:04:30.700Z,102188.94
2022-11-13T14:07:01.104Z,102194.94
2022-11-13T14:09:32.086Z,102191.31
2022-11-13T14:12:09.360Z,102180.97
2022-11-13T14:14:40.971Z,102172.41
2022-11-13T14:17:12.674Z,102170.34
2022-11-13T14:19:41.257Z,102177.19
2022-11-13T14:22:13.403Z,102171.75
2022-11-13T14:24:49.916Z,102160.69
2022-11-13T14:27:24.312Z,102166.78
2022-11-13T14:29:56.676Z,102173.50
2022-11-13T14:32:29.526Z,102163.94
2022-11-13T14:35:02.259Z,102169.72
2022-11-13T14:37:37.712Z,102164.56
2022-11-13T14:40:21.537Z,102167.84
2022-11-13T14:42:54.438Z,102163.47
2022-11-13T14:45:25.804Z,102160.56
2022-11-13T14:48:00.379Z,102155.56
2022-11-13T14:50:31.855Z,102172.31
2022-11-13T14:53:03.765Z,102158.19
2022-11-13T14:55:37.638Z,102152.22
2022-11-13T14:58:06.953Z,102157.44
2022-11-13T15:00:38.256Z,102157.09
2022-11-13T15:03:07.621Z,102146.13
2022-11-13T15:05:37.935Z,102151.38
2022-11-13T15:08:07.224Z,102145.81
2022-11-13T15:10:38.641Z,102138.94
2022-11-13T15:13:13.253Z,102134.66
2022-11-13T15:15:42.261Z,102144.06
2022-11-13T15:18:18.438Z,102145.38
2022-11-13T15:20:47.411Z,102136.88
2022-11-13T15:23:17.851Z,102148.41
2022-11-13T15:25:48.065Z,102154.81
2022-11-13T15:28:16.406Z,102151.59
2022-11-13T15:30:44.864Z,102141.94
2022-11-13T15:33:16.816Z,102138.94
2022-11-13T15:35:45.560Z,102134.88
2022-11-13T15:38:18.371Z,102137.03
2022-11-13T15:40:48.793Z,102122.72
2022-11-13T15:43:21.363Z,102123.22
2022-11-13T15:45:49.771Z,102128.78
2022-11-13T15:48:18.568Z,102117.75
2022-11-13T15:50:47.241Z,102121.16
2022-11-13T15:53:15.764Z,102123.53
2022-11-13T15:55:44.632Z,102129.56
2022-11-13T15:58:17.172Z,102130.38
2022-11-13T16:00:46.061Z,102125.84
2022-11-13T16:03:14.461Z,102117.47
2022-11-13T16:05:43.042Z,102121.88
2022-11-13T16:08:14.957Z,102120.22
2022-11-13T16:10:43.634Z,102126.78
2022-11-13T16:13:13.101Z,102119.88
2022-11-13T16:15:43.563Z,102119.19
2022-11-13T16:18:25.211Z,102122.06
2022-11-13T16:20:54.185Z,102120.47
2022-11-13T16:23:23.146Z,102117.69
2022-11-13T16:25:52.763Z,102124.00
2022-11-13T16:28:21.955Z,102122.88
2022-11-13T16:30:54.357Z,102123.63
2022-11-13T16:33:23.267Z,102118.06
2022-11-13T16:35:52.444Z,102113.50
2022-11-13T16:38:20.807Z,102103.25
2022-11-13T16:40:49.174Z,102116.41
2022-11-13T16:43:17.866Z,102112.13
2022-11-13T16:45:46.179Z,102097.13
2022-11-13T16:48:17.422Z,102089.50
2022-11-13T16:50:45.774Z,102089.03
2022-11-13T16:53:14.216Z,102087.44
2022-11-13T16:55:42.591Z,102084.22
2022-11-13T16:58:15.240Z,102072.41
2022-11-13T17:00:43.611Z,102069.09
2022-11-13T17:03:12.126Z,102076.63
2022-11-13T17:05:41.994Z,102064.47
2022-11-13T17:08:14.207Z,102065.63
2022-11-13T17:10:42.640Z,102063.31
2022-11-13T17:13:11.866Z,102056.56
2022-11-13T17:15:40.320Z,102048.03
2022-11-13T17:18:10.467Z,102044.69
2022-11-13T17:20:39.389Z,102047.75
2022-11-13T17:23:16.882Z,102048.16
2022-11-13T17:25:45.393Z,102039.25
2022-11-13T17:28:13.985Z,102045.47
2022-11-13T17:30:42.411Z,102046.59
2022-11-13T17:33:10.846Z,102045.97
2022-11-13T17:35:39.466Z,102044.75
2022-11-13T17:38:09.413Z,102044.13
2022-11-13T17:40:37.822Z,102036.31
2022-11-13T17:43:09.312Z,102036.69
2022-11-13T17:45:38.812Z,102038.72
2022-11-13T17:48:07.586Z,102035.38
2022-11-13T17:50:36.049Z,102022.34
2022-11-13T17:53:04.485Z,102013.06
2022-11-13T17:55:34.290Z,102022.16
2022-11-13T17:58:04.070Z,102020.53
2022-11-13T18:00:32.695Z,102019.00
2022-11-13T18:03:01.127Z,102022.69
2022-11-13T18:05:29.733Z,102008.66
2022-11-13T18:07:58.235Z,102017.56
2022-11-13T18:10:29.316Z,102023.19
2022-11-13T18:12:59.351Z,102021.59
2022-11-13T18:15:28.312Z,102026.06
2022-11-13T18:17:56.713Z,102036.78
2022-11-13T18:20:29.016Z,102042.56
2022-11-13T18:22:58.026Z,102048.72
2022-11-13T18:25:29.606Z,102034.03
2022-11-13T18:27:59.363Z,102041.69
2022-11-13T18:30:27.750Z,102032.78
2022-11-13T18:32:56.098Z,102036.56
2022-11-13T18:35:24.511Z,102038.41
2022-11-13T18:37:53.189Z,102033.38
2022-11-13T18:40:21.563Z,102027.19
2022-11-13T18:42:51.975Z,102032.66
2022-11-13T18:45:22.092Z,102026.25
2022-11-13T18:47:50.732Z,102024.91
2022-11-13T18:50:19.164Z,102023.81
2022-11-13T18:52:47.575Z,102016.16
2022-11-13T18:55:16.048Z,102022.81
2022-11-13T18:57:44.473Z,102019.91
2022-11-13T19:00:14.638Z,102014.91
2022-11-13T19:02:44.377Z,102024.66
2022-11-13T19:05:12.816Z,102014.25
2022-11-13T19:07:43.914Z,102016.13
2022-11-13T19:10:12.401Z,102005.91
2022-11-13T19:12:41.054Z,102002.41
2022-11-13T19:15:11.111Z,102005.06
2022-11-13T19:17:39.621Z,102018.78
2022-11-13T19:20:11.764Z,102010.78
2022-11-13T19:22:40.756Z,101999.09
2022-11-13T19:25:10.082Z,101979.88
2022-11-13T19:27:39.142Z,101997.56
2022-11-13T19:30:09.184Z,101991.44
2022-11-13T19:32:38.083Z,101996.16
2022-11-13T19:35:08.107Z,101975.00
2022-11-13T19:37:40.419Z,101985.03
2022-11-13T19:40:13.049Z,101979.03
2022-11-13T19:42:43.485Z,101971.25
2022-11-13T19:45:14.020Z,101968.53
2022-11-13T19:47:43.090Z,101969.31
2022-11-13T19:50:12.693Z,101952.59
2022-11-13T19:52:42.715Z,101964.06
2022-11-13T19:55:11.385Z,101959.69
2022-11-13T19:57:45.093Z,101955.25
2022-11-13T20:00:15.778Z,101950.25
2022-11-13T20:02:44.460Z,101958.25
2022-11-13T20:05:13.384Z,101962.72
2022-11-13T20:07:45.811Z,101976.13
2022-11-13T20:10:16.274Z,101972.72
2022-11-13T20:12:46.079Z,101967.59
2022-11-13T20:15:14.965Z,101957.88
2022-11-13T20:17:43.829Z,101959.53
2022-11-13T20:20:13.672Z,101955.31
2022-11-13T20:22:44.353Z,101953.66
2022-11-13T20:25:12.978Z,101947.59
2022-11-13T20:27:47.134Z,101949.56
2022-11-13T20:30:16.457Z,101953.03
2022-11-13T20:32:45.098Z,101941.69
2022-11-13T20:35:16.241Z,101952.38
2022-11-13T20:37:46.552Z,101940.91
2022-11-13T20:40:15.762Z,101931.19
2022-11-13T20:42:44.602Z,101922.34
2022-11-13T20:45:13.267Z,101936.44
2022-11-13T20:47:42.095Z,101927.75
2022-11-13T20:50:11.935Z,101921.53
2022-11-13T20:52:41.014Z,101918.88
2022-11-13T20:55:11.405Z,101914.69
2022-11-13T20:57:41.223Z,101927.19
2022-11-13T21:00:12.784Z,101914.75
2022-11-13T21:02:41.452Z,101915.63
2022-11-13T21:05:10.822Z,101900.69
2022-11-13T21:07:39.836Z,101912.28
2022-11-13T21:10:10.933Z,101909.03
2022-11-13T21:12:39.948Z,101903.59
2022-11-13T21:15:12.996Z,101894.81
2022-11-13T21:17:41.868Z,101903.38
2022-11-13T21:20:14.328Z,101903.88
2022-11-13T21:22:42.977Z,101889.69
2022-11-13T21:25:13.096Z,101894.13
2022-11-13T21:27:42.639Z,101885.09
2022-11-13T21:30:12.939Z,101876.50
2022-11-13T21:32:41.806Z,101885.28
2022-11-13T21:35:10.800Z,101883.53
2022-11-13T21:37:39.393Z,101879.81
2022-11-13T21:40:10.851Z,101879.69
2022-11-13T21:42:40.936Z,101882.41
2022-11-13T21:45:10.992Z,101870.91
2022-11-13T21:47:39.962Z,101885.31
2022-11-13T21:50:09.964Z,101876.88
2022-11-13T21:52:38.408Z,101881.25
2022-11-13T21:55:08.678Z,101876.97
2022-11-13T21:57:37.374Z,101872.00
2022-11-13T22:00:11.099Z,101869.44
2022-11-13T22:02:39.495Z,101865.97
2022-11-13T22:05:09.175Z,101868.63
2022-11-13T22:07:37.965Z,101859.19
2022-11-13T22:10:08.626Z,101864.88
2022-11-13T22:12:37.281Z,101851.91
2022-11-13T22:15:14.540Z,101851.28
2022-11-13T22:17:42.946Z,101854.09
2022-11-13T22:20:13.113Z,101854.09
2022-11-13T22:22:41.972Z,101842.78
2022-11-13T22:25:10.790Z,101849.06
2022-11-13T22:27:39.310Z,101850.22
2022-11-13T22:30:11.265Z,101861.28
2022-11-13T22:32:39.755Z,101853.88
2022-11-13T22:35:09.594Z,101851.91
2022-11-13T22:37:37.959Z,101855.78
2022-11-13T22:40:07.680Z,101855.09
2022-11-13T22:42:37.210Z,101847.41
2022-11-13T22:45:22.832Z,101866.78
2022-11-13T22:47:52.378Z,101850.63
2022-11-13T22:50:20.790Z,101846.06
2022-11-13T22:52:49.285Z,101843.84
2022-11-13T22:55:18.012Z,101851.91
2022-11-13T22:57:46.585Z,101847.03
2022-11-13T23:00:18.139Z,101841.75
2022-11-13T23:02:47.525Z,101842.09
2022-11-13T23:05:16.542Z,101834.16
2022-11-13T23:07:45.136Z,101839.34
2022-11-13T23:10:14.360Z,101843.63
2022-11-13T23:12:43.005Z,101826.59
2022-11-13T23:15:12.357Z,101827.75
2022-11-13T23:17:42.320Z,101826.97
2022-11-13T23:20:12.458Z,101819.47
2022-11-13T23:22:41.126Z,101804.75
2022-11-13T23:25:10.848Z,101808.75
2022-11-13T23:27:39.447Z,101809.59
2022-11-13T23:30:10.394Z,101820.66
2022-11-13T23:32:38.802Z,101805.41
2022-11-13T23:35:10.034Z,101803.69
2022-11-13T23:37:38.795Z,101802.19
2022-11-13T23:40:09.211Z,101791.97
2022-11-13T23:42:54.264Z,101796.47
2022-11-13T23:45:24.066Z,101789.94
2022-11-13T23:47:53.184Z,101787.28
2022-11-13T23:50:23.214Z,101788.81
2022-11-13T23:52:51.923Z,101788.28
2022-11-13T23:55:21.270Z,101785.50
2022-11-13T23:57:56.549Z,101785.41
